createdAt,value
2022-10-07T00:01:38.754Z,3.69
2022-10-07T00:04:05.437Z,3.71
2022-10-07T00:06:32.055Z,3.71
2022-10-07T00:08:59.869Z,3.72
2022-10-07T00:11:27.290Z,3.69
2022-10-07T00:13:55.050Z,3.67
2022-10-07T00:16:24.672Z,3.69
2022-10-07T00:18:51.940Z,3.69
2022-10-07T00:21:18.992Z,3.70
2022-10-07T00:23:46.516Z,3.68
2022-10-07T00:26:14.328Z,3.69
2022-10-07T00:28:41.171Z,3.67
2022-10-07T00:31:09.471Z,3.69
2022-10-07T00:33:37.799Z,3.68
2022-10-07T00:36:18.003Z,3.68
2022-10-07T00:38:44.515Z,3.65
2022-10-07T00:41:18.727Z,3.65
2022-10-07T00:43:45.209Z,3.64
2022-10-07T00:46:13.259Z,3.60
2022-10-07T00:48:39.738Z,3.57
2022-10-07T00:51:06.369Z,3.53
2022-10-07T00:53:33.178Z,3.52
2022-10-07T00:56:02.077Z,3.50
2022-10-07T00:58:32.339Z,3.52
2022-10-07T01:00:58.905Z,3.48
2022-10-07T01:03:25.389Z,3.40
2022-10-07T01:05:51.826Z,3.32
2022-10-07T01:08:18.355Z,3.26
2022-10-07T01:10:48.973Z,3.28
2022-10-07T01:13:35.840Z,3.32
2022-10-07T01:16:12.772Z,3.32
2022-10-07T01:18:52.779Z,3.28
2022-10-07T01:21:22.235Z,3.21
2022-10-07T01:23:51.717Z,3.16
2022-10-07T01:26:21.274Z,3.11
2022-10-07T01:28:47.648Z,3.12
2022-10-07T01:31:16.917Z,3.12
2022-10-07T01:33:43.451Z,3.13
2022-10-07T01:36:10.914Z,3.10
2022-10-07T01:38:38.187Z,3.05
2022-10-07T01:41:15.209Z,3.09
2022-10-07T01:43:41.977Z,3.15
2022-10-07T01:46:09.892Z,3.18
2022-10-07T01:48:36.396Z,3.22
2022-10-07T01:51:02.794Z,3.23
2022-10-07T01:53:36.547Z,3.26
2022-10-07T01:56:11.945Z,3.21
2022-10-07T01:58:56.446Z,3.19
2022-10-07T02:01:26.022Z,3.06
2022-10-07T02:03:58.739Z,2.94
2022-10-07T02:06:51.797Z,2.88
2022-10-07T02:09:41.629Z,2.84
2022-10-07T02:12:15.223Z,2.78
2022-10-07T02:14:49.657Z,2.72
2022-10-07T02:17:18.263Z,2.72
2022-10-07T02:20:03.331Z,2.72
2022-10-07T02:22:29.777Z,2.73
2022-10-07T02:24:59.142Z,2.70
2022-10-07T02:27:28.116Z,2.68
2022-10-07T02:29:55.134Z,2.69
2022-10-07T02:32:22.388Z,2.70
2022-10-07T02:34:49.084Z,2.78
2022-10-07T02:37:19.420Z,2.76
2022-10-07T02:39:46.816Z,2.78
2022-10-07T02:42:16.824Z,2.82
2022-10-07T02:44:56.535Z,2.84
2022-10-07T02:47:41.210Z,2.90
2022-10-07T02:50:08.738Z,2.86
2022-10-07T02:52:35.195Z,2.77
2022-10-07T02:55:03.791Z,2.68
2022-10-07T02:57:31.675Z,2.62
2022-10-07T02:59:58.055Z,2.58
2022-10-07T03:02:30.315Z,2.53
2022-10-07T03:04:57.543Z,2.53
2022-10-07T03:07:25.100Z,2.53
2022-10-07T03:09:51.507Z,2.53
2022-10-07T03:12:17.929Z,2.57
2022-10-07T03:14:44.998Z,2.51
2022-10-07T03:17:11.421Z,2.48
2022-10-07T03:19:38.125Z,2.47
2022-10-07T03:22:04.582Z,2.45
2022-10-07T03:24:31.192Z,2.44
2022-10-07T03:26:57.666Z,2.46
2022-10-07T03:29:26.165Z,2.46
2022-10-07T03:31:55.418Z,2.47
2022-10-07T03:34:23.162Z,2.51
2022-10-07T03:36:49.601Z,2.52
2022-10-07T03:39:15.971Z,2.53
2022-10-07T03:41:42.406Z,2.51
2022-10-07T03:44:08.851Z,2.50
2022-10-07T03:46:35.350Z,2.50
2022-10-07T03:49:02.257Z,2.54
2022-10-07T03:51:28.687Z,2.51
2022-10-07T03:53:57.480Z,2.47
2022-10-07T03:56:24.140Z,2.44
2022-10-07T03:58:50.587Z,2.41
2022-10-07T04:01:17.534Z,2.44
2022-10-07T04:03:43.975Z,2.52
2022-10-07T04:06:10.438Z,2.55
2022-10-07T04:08:36.995Z,2.56
2022-10-07T04:11:03.889Z,2.42
2022-10-07T04:13:30.309Z,2.27
2022-10-07T04:15:56.811Z,2.15
2022-10-07T04:18:23.487Z,2.07
2022-10-07T04:20:49.925Z,2.15
2022-10-07T04:23:16.467Z,2.11
2022-10-07T04:25:43.845Z,2.13
2022-10-07T04:28:17.838Z,2.16
2022-10-07T04:30:44.380Z,2.14
2022-10-07T04:33:11.516Z,2.10
2022-10-07T04:35:38.976Z,2.07
2022-10-07T04:38:07.880Z,2.04
2022-10-07T04:40:34.250Z,2.05
2022-10-07T04:43:20.936Z,2.03
2022-10-07T04:45:47.926Z,2.02
2022-10-07T04:48:14.663Z,2.01
2022-10-07T04:50:41.102Z,2.03
2022-10-07T04:53:08.072Z,2.09
2022-10-07T04:55:38.171Z,2.10
2022-10-07T04:58:04.599Z,2.13
2022-10-07T05:00:31.313Z,2.14
2022-10-07T05:02:57.748Z,2.14
2022-10-07T05:05:25.835Z,2.17
2022-10-07T05:07:52.602Z,2.22
2022-10-07T05:10:19.276Z,2.25
2022-10-07T05:12:45.731Z,2.26
2022-10-07T05:15:12.330Z,2.27
2022-10-07T05:17:41.133Z,2.29
2022-10-07T05:20:08.460Z,2.24
2022-10-07T05:22:34.873Z,2.21
2022-10-07T05:25:01.292Z,2.21
2022-10-07T05:27:27.707Z,2.25
2022-10-07T05:29:54.100Z,2.25
2022-10-07T05:32:21.246Z,2.30
2022-10-07T05:34:47.683Z,2.38
2022-10-07T05:37:15.211Z,2.33
2022-10-07T05:39:41.623Z,2.24
2022-10-07T05:42:08.198Z,2.15
2022-10-07T05:44:34.639Z,2.02
2022-10-07T05:47:02.066Z,1.90
2022-10-07T05:49:28.462Z,1.87
2022-10-07T05:51:54.927Z,1.87
2022-10-07T05:54:21.700Z,1.97
2022-10-07T05:56:48.436Z,2.04
2022-10-07T05:59:14.858Z,2.05
2022-10-07T06:01:42.856Z,2.06
2022-10-07T06:04:09.379Z,2.04
2022-10-07T06:06:35.884Z,2.07
2022-10-07T06:09:20.871Z,2.08
2022-10-07T06:12:06.042Z,2.07
2022-10-07T06:14:32.426Z,2.05
2022-10-07T06:16:58.964Z,2.08
2022-10-07T06:19:25.520Z,2.07
2022-10-07T06:21:52.063Z,2.19
2022-10-07T06:24:18.494Z,2.36
2022-10-07T06:26:44.948Z,2.55
2022-10-07T06:29:11.381Z,2.69
2022-10-07T06:31:37.796Z,2.91
2022-10-07T06:34:04.274Z,3.11
2022-10-07T06:36:30.737Z,3.39
2022-10-07T06:38:57.191Z,3.66
2022-10-07T06:41:23.886Z,3.95
2022-10-07T06:43:50.271Z,4.27
2022-10-07T06:46:17.541Z,4.54
2022-10-07T06:48:45.909Z,4.76
2022-10-07T06:51:13.205Z,4.97
2022-10-07T06:53:39.638Z,5.19
2022-10-07T06:56:06.151Z,5.24
2022-10-07T06:58:32.778Z,5.34
2022-10-07T07:01:02.370Z,5.54
2022-10-07T07:03:29.096Z,5.75
2022-10-07T07:05:55.684Z,5.92
2022-10-07T07:08:22.743Z,6.09
2022-10-07T07:10:49.168Z,6.11
2022-10-07T07:13:15.828Z,6.16
2022-10-07T07:15:42.483Z,6.31
2022-10-07T07:18:09.337Z,6.48
2022-10-07T07:20:38.854Z,6.65
2022-10-07T07:23:05.934Z,6.91
2022-10-07T07:25:32.772Z,6.94
2022-10-07T07:28:02.367Z,6.97
2022-10-07T07:30:29.206Z,7.06
2022-10-07T07:32:55.776Z,7.18
2022-10-07T07:35:22.743Z,7.27
2022-10-07T07:37:50.397Z,7.36
2022-10-07T07:40:17.417Z,7.42
2022-10-07T07:42:45.324Z,7.66
2022-10-07T07:45:11.858Z,7.90
2022-10-07T07:47:38.386Z,8.14
2022-10-07T07:50:05.614Z,8.44
2022-10-07T07:52:32.337Z,8.74
2022-10-07T07:54:59.200Z,8.97
2022-10-07T07:57:26.316Z,9.21
2022-10-07T07:59:52.940Z,9.25
2022-10-07T08:02:20.418Z,9.42
2022-10-07T08:04:46.948Z,9.63
2022-10-07T08:07:13.402Z,9.72
2022-10-07T08:09:40.040Z,10.00
2022-10-07T08:12:06.885Z,10.24
2022-10-07T08:14:33.523Z,10.50
2022-10-07T08:17:01.078Z,10.82
2022-10-07T08:19:29.450Z,10.82
2022-10-07T08:21:56.551Z,11.05
2022-10-07T08:24:24.988Z,11.42
2022-10-07T08:26:51.803Z,11.71
2022-10-07T08:29:18.277Z,11.92
2022-10-07T08:31:44.736Z,12.15
2022-10-07T08:34:11.482Z,12.38
2022-10-07T08:36:38.071Z,12.62
2022-10-07T08:39:04.674Z,12.88
2022-10-07T08:41:36.444Z,12.96
2022-10-07T08:44:18.201Z,13.20
2022-10-07T08:47:06.527Z,13.38
2022-10-07T08:49:36.067Z,13.28
2022-10-07T08:52:21.306Z,13.50
2022-10-07T08:54:47.743Z,13.16
2022-10-07T08:57:16.284Z,13.85
2022-10-07T08:59:44.827Z,14.64
2022-10-07T09:02:20.522Z,14.98
2022-10-07T09:05:05.741Z,15.57
2022-10-07T09:07:40.369Z,15.94
2022-10-07T09:10:09.847Z,16.53
2022-10-07T09:12:37.224Z,17.53
2022-10-07T09:15:03.914Z,17.27
2022-10-07T09:17:35.918Z,18.02
2022-10-07T09:20:04.585Z,18.48
2022-10-07T09:22:31.889Z,18.88
2022-10-07T09:25:17.111Z,18.81
2022-10-07T09:27:43.825Z,18.59
2022-10-07T09:30:12.971Z,18.93
2022-10-07T09:32:40.783Z,19.64
2022-10-07T09:35:11.559Z,19.38
2022-10-07T09:37:37.927Z,19.14
2022-10-07T09:40:20.705Z,19.16
2022-10-07T09:42:48.563Z,19.67
2022-10-07T09:45:22.271Z,19.71
2022-10-07T09:47:52.801Z,20.86
2022-10-07T09:50:39.639Z,20.47
2022-10-07T09:53:12.274Z,21.34
2022-10-07T09:55:40.159Z,21.12
2022-10-07T09:58:09.134Z,21.81
2022-10-07T10:00:41.439Z,22.26
2022-10-07T10:03:07.935Z,22.84
2022-10-07T10:05:35.547Z,22.82
2022-10-07T10:08:03.914Z,22.99
2022-10-07T10:10:31.427Z,23.43
2022-10-07T10:12:58.500Z,23.48
2022-10-07T10:15:26.836Z,23.43
2022-10-07T10:17:54.790Z,23.25
2022-10-07T10:20:24.232Z,24.23
2022-10-07T10:22:50.963Z,23.83
2022-10-07T10:25:56.446Z,23.08
2022-10-07T10:28:22.915Z,23.38
2022-10-07T10:30:55.619Z,23.94
2022-10-07T10:33:32.756Z,24.69
2022-10-07T10:36:05.287Z,25.33
2022-10-07T10:38:33.255Z,26.10
2022-10-07T10:41:04.194Z,26.94
2022-10-07T10:43:37.701Z,26.35
2022-10-07T10:46:22.369Z,26.31
2022-10-07T10:49:09.464Z,27.00
2022-10-07T10:51:53.227Z,28.39
2022-10-07T10:54:24.762Z,29.11
2022-10-07T10:57:29.234Z,29.81
2022-10-07T11:00:15.239Z,30.54
2022-10-07T11:02:53.869Z,31.41
2022-10-07T11:05:24.142Z,31.74
2022-10-07T11:07:51.397Z,31.94
2022-10-07T11:10:24.689Z,32.19
2022-10-07T11:12:54.670Z,32.05
2022-10-07T11:15:37.257Z,29.96
2022-10-07T11:18:08.549Z,28.85
2022-10-07T11:20:43.816Z,29.49
2022-10-07T11:23:24.916Z,30.61
2022-10-07T11:26:00.256Z,32.16
2022-10-07T11:28:27.274Z,32.69
2022-10-07T11:31:05.424Z,32.91
2022-10-07T11:33:41.517Z,32.80
2022-10-07T11:36:28.187Z,33.21
2022-10-07T11:38:54.603Z,33.65
2022-10-07T11:41:33.872Z,33.28
2022-10-07T11:44:01.783Z,33.10
2022-10-07T11:46:31.959Z,30.90
2022-10-07T11:49:00.887Z,31.57
2022-10-07T11:51:29.256Z,32.21
2022-10-07T11:53:56.098Z,32.03
2022-10-07T11:56:23.648Z,32.27
2022-10-07T11:58:58.066Z,32.66
2022-10-07T12:01:30.711Z,32.65
2022-10-07T12:04:15.571Z,33.10
2022-10-07T12:07:04.018Z,33.86
2022-10-07T12:09:49.202Z,33.86
2022-10-07T12:12:15.643Z,34.78
2022-10-07T12:14:43.021Z,34.56
2022-10-07T12:17:22.380Z,34.90
2022-10-07T12:20:06.937Z,34.32
2022-10-07T12:22:33.347Z,34.18
2022-10-07T12:25:18.498Z,33.55
2022-10-07T12:27:46.244Z,35.09
2022-10-07T12:30:32.601Z,35.54
2022-10-07T12:33:01.022Z,33.86
2022-10-07T12:35:32.369Z,34.81
2022-10-07T12:38:03.097Z,34.69
2022-10-07T12:40:30.013Z,35.46
2022-10-07T12:43:08.935Z,34.24
2022-10-07T12:45:37.150Z,35.63
2022-10-07T12:48:03.677Z,36.49
2022-10-07T12:50:31.731Z,37.56
2022-10-07T12:52:58.809Z,37.38
2022-10-07T12:55:30.526Z,37.07
2022-10-07T12:58:16.932Z,35.40
2022-10-07T13:00:54.644Z,33.85
2022-10-07T13:03:27.396Z,32.66
2022-10-07T13:06:08.924Z,30.14
2022-10-07T13:08:35.310Z,28.47
2022-10-07T13:11:20.605Z,26.82
2022-10-07T13:13:46.958Z,24.92
2022-10-07T13:16:15.670Z,23.54
2022-10-07T13:18:45.032Z,22.83
2022-10-07T13:21:13.027Z,22.73
2022-10-07T13:23:39.407Z,22.89
2022-10-07T13:26:05.821Z,23.11
2022-10-07T13:28:38.278Z,23.00
2022-10-07T13:31:11.914Z,22.81
2022-10-07T13:33:38.375Z,22.19
2022-10-07T13:36:14.023Z,21.46
2022-10-07T13:38:40.461Z,20.38
2022-10-07T13:41:09.272Z,20.82
2022-10-07T13:43:36.091Z,22.40
2022-10-07T13:46:02.549Z,22.80
2022-10-07T13:48:31.463Z,22.14
2022-10-07T13:50:58.553Z,21.49
2022-10-07T13:53:34.813Z,20.43
2022-10-07T13:56:21.952Z,19.47
2022-10-07T13:58:48.368Z,18.81
2022-10-07T14:01:14.896Z,18.25
2022-10-07T14:04:00.703Z,17.99
2022-10-07T14:06:37.848Z,17.96
2022-10-07T14:09:04.271Z,17.79
2022-10-07T14:11:30.840Z,18.03
2022-10-07T14:13:59.475Z,19.28
2022-10-07T14:16:26.439Z,20.12
2022-10-07T14:18:52.932Z,20.21
2022-10-07T14:21:19.357Z,19.90
2022-10-07T14:23:46.950Z,19.38
2022-10-07T14:26:15.151Z,18.84
2022-10-07T14:28:42.265Z,18.26
2022-10-07T14:31:27.667Z,17.80
2022-10-07T14:34:12.845Z,17.51
2022-10-07T14:36:49.289Z,17.37
2022-10-07T14:39:23.018Z,17.23
2022-10-07T14:41:49.412Z,17.04
2022-10-07T14:44:18.269Z,16.92
2022-10-07T14:46:44.695Z,16.62
2022-10-07T14:49:11.186Z,16.40
2022-10-07T14:51:37.668Z,16.28
2022-10-07T14:54:05.894Z,16.26
2022-10-07T14:56:33.755Z,16.14
2022-10-07T14:59:00.491Z,16.08
2022-10-07T15:01:28.307Z,15.98
2022-10-07T15:03:54.909Z,15.83
2022-10-07T15:06:21.582Z,15.65
2022-10-07T15:08:48.287Z,15.64
2022-10-07T15:11:15.535Z,15.58
2022-10-07T15:13:43.172Z,15.62
2022-10-07T15:16:13.132Z,16.62
2022-10-07T15:18:43.407Z,17.29
2022-10-07T15:21:12.765Z,16.86
2022-10-07T15:23:39.212Z,16.38
2022-10-07T15:26:05.827Z,15.93
2022-10-07T15:28:33.243Z,15.67
2022-10-07T15:31:06.809Z,15.39
2022-10-07T15:33:33.618Z,15.14
2022-10-07T15:36:00.188Z,14.99
2022-10-07T15:38:27.000Z,14.84
2022-10-07T15:40:54.468Z,14.74
2022-10-07T15:43:20.945Z,14.64
2022-10-07T15:45:49.133Z,14.59
2022-10-07T15:48:16.268Z,14.50
2022-10-07T15:50:49.285Z,14.43
2022-10-07T15:53:16.491Z,14.27
2022-10-07T15:55:56.193Z,14.13
2022-10-07T15:58:23.302Z,14.01
2022-10-07T16:01:03.245Z,13.82
2022-10-07T16:03:39.794Z,13.61
2022-10-07T16:06:17.167Z,13.52
2022-10-07T16:08:43.586Z,13.46
2022-10-07T16:11:10.897Z,13.36
2022-10-07T16:13:37.658Z,13.31
2022-10-07T16:16:06.455Z,13.24
2022-10-07T16:18:36.971Z,13.12
2022-10-07T16:21:07.359Z,12.94
2022-10-07T16:23:34.384Z,12.79
2022-10-07T16:26:11.018Z,12.65
2022-10-07T16:28:59.673Z,12.58
2022-10-07T16:31:26.174Z,12.50
2022-10-07T16:33:53.007Z,12.39
2022-10-07T16:36:20.739Z,12.28
2022-10-07T16:38:47.307Z,12.19
2022-10-07T16:41:13.976Z,12.09
2022-10-07T16:43:40.455Z,11.94
2022-10-07T16:46:08.787Z,11.79
2022-10-07T16:48:38.975Z,11.64
2022-10-07T16:51:08.560Z,11.45
2022-10-07T16:53:34.988Z,11.24
2022-10-07T16:56:02.251Z,11.02
2022-10-07T16:58:28.690Z,10.92
2022-10-07T17:01:00.224Z,10.75
2022-10-07T17:03:26.637Z,10.67
2022-10-07T17:05:56.703Z,10.50
2022-10-07T17:08:23.245Z,10.36
2022-10-07T17:10:49.662Z,10.25
2022-10-07T17:13:18.307Z,10.13
2022-10-07T17:15:49.115Z,10.00
2022-10-07T17:18:18.655Z,9.82
2022-10-07T17:20:50.869Z,9.71
2022-10-07T17:23:17.432Z,9.60
2022-10-07T17:25:46.377Z,9.58
2022-10-07T17:28:13.450Z,9.58
2022-10-07T17:30:40.065Z,9.52
2022-10-07T17:33:07.036Z,9.45
2022-10-07T17:35:33.831Z,9.41
2022-10-07T17:38:00.725Z,9.38
2022-10-07T17:40:30.653Z,9.32
2022-10-07T17:42:59.474Z,9.29
2022-10-07T17:45:25.883Z,9.23
2022-10-07T17:47:54.455Z,9.23
2022-10-07T17:50:20.880Z,9.35
2022-10-07T17:52:47.282Z,9.45
2022-10-07T17:55:13.718Z,9.61
2022-10-07T17:57:40.148Z,9.89
2022-10-07T18:00:06.989Z,10.17
2022-10-07T18:02:33.784Z,10.11
2022-10-07T18:05:00.415Z,10.38
2022-10-07T18:07:26.971Z,10.41
2022-10-07T18:09:53.437Z,9.98
2022-10-07T18:12:49.138Z,9.68
2022-10-07T18:15:21.260Z,9.30
2022-10-07T18:17:50.799Z,8.86
2022-10-07T18:20:25.325Z,8.62
2022-10-07T18:22:55.743Z,8.39
2022-10-07T18:25:22.280Z,8.23
2022-10-07T18:27:48.951Z,8.19
2022-10-07T18:30:15.612Z,8.00
2022-10-07T18:32:42.083Z,8.04
2022-10-07T18:35:08.626Z,8.11
2022-10-07T18:37:36.128Z,8.03
2022-10-07T18:40:02.535Z,8.01
2022-10-07T18:42:28.962Z,8.16
2022-10-07T18:44:55.397Z,8.20
2022-10-07T18:47:21.817Z,8.37
2022-10-07T18:49:48.220Z,8.37
2022-10-07T18:52:14.628Z,8.18
2022-10-07T18:54:41.051Z,8.04
2022-10-07T18:57:07.516Z,8.01
2022-10-07T18:59:33.996Z,8.02
2022-10-07T19:02:00.587Z,7.98
2022-10-07T19:04:27.030Z,7.83
2022-10-07T19:06:53.477Z,7.79
2022-10-07T19:09:20.518Z,7.77
2022-10-07T19:11:47.099Z,7.76
2022-10-07T19:14:13.816Z,7.74
2022-10-07T19:16:41.413Z,7.62
2022-10-07T19:19:08.606Z,7.65
2022-10-07T19:21:35.903Z,7.59
2022-10-07T19:24:02.760Z,7.58
2022-10-07T19:26:31.111Z,7.67
2022-10-07T19:28:57.533Z,7.73
2022-10-07T19:31:24.090Z,7.72
2022-10-07T19:33:51.707Z,7.84
2022-10-07T19:36:19.057Z,7.84
2022-10-07T19:38:52.312Z,7.86
2022-10-07T19:41:20.266Z,7.87
2022-10-07T19:43:46.795Z,7.89
2022-10-07T19:46:13.449Z,7.83
2022-10-07T19:48:40.015Z,7.69
2022-10-07T19:51:10.767Z,7.70
2022-10-07T19:53:37.235Z,7.96
2022-10-07T19:56:04.859Z,8.05
2022-10-07T19:58:31.754Z,8.11
2022-10-07T20:01:08.512Z,8.11
2022-10-07T20:03:35.263Z,8.12
2022-10-07T20:06:08.999Z,8.04
2022-10-07T20:08:36.384Z,8.08
2022-10-07T20:11:02.961Z,8.10
2022-10-07T20:13:30.259Z,8.19
2022-10-07T20:16:06.107Z,8.35
2022-10-07T20:18:33.067Z,8.50
2022-10-07T20:21:00.345Z,8.59
2022-10-07T20:23:26.923Z,8.60
2022-10-07T20:25:53.408Z,8.50
2022-10-07T20:28:19.926Z,8.84
2022-10-07T20:30:46.318Z,8.92
2022-10-07T20:33:12.940Z,8.91
2022-10-07T20:35:39.621Z,8.94
2022-10-07T20:38:06.028Z,8.89
2022-10-07T20:40:51.207Z,9.02
2022-10-07T20:43:17.618Z,9.04
2022-10-07T20:45:56.383Z,9.00
2022-10-07T20:48:23.109Z,8.94
2022-10-07T20:50:49.842Z,8.95
2022-10-07T20:53:16.257Z,8.93
2022-10-07T20:55:42.618Z,8.87
2022-10-07T20:58:09.023Z,8.86
2022-10-07T21:00:35.407Z,8.84
2022-10-07T21:03:01.993Z,8.84
2022-10-07T21:05:29.994Z,8.85
2022-10-07T21:07:56.412Z,8.73
2022-10-07T21:10:22.917Z,8.65
2022-10-07T21:12:49.878Z,8.65
2022-10-07T21:15:16.346Z,8.56
2022-10-07T21:17:44.489Z,8.42
2022-10-07T21:20:10.972Z,8.30
2022-10-07T21:22:37.502Z,8.30
2022-10-07T21:25:04.107Z,8.22
2022-10-07T21:27:30.515Z,8.15
2022-10-07T21:29:56.943Z,8.14
2022-10-07T21:32:23.404Z,8.16
2022-10-07T21:34:49.841Z,8.13
2022-10-07T21:37:16.264Z,8.10
2022-10-07T21:39:42.684Z,8.08
2022-10-07T21:42:09.090Z,8.05
2022-10-07T21:44:35.683Z,8.04
2022-10-07T21:47:02.156Z,7.97
2022-10-07T21:49:28.576Z,7.85
2022-10-07T21:51:55.018Z,7.80
2022-10-07T21:54:21.503Z,7.84
2022-10-07T21:56:48.042Z,7.89
2022-10-07T21:59:14.535Z,7.81
2022-10-07T22:01:42.420Z,7.70
2022-10-07T22:04:16.052Z,7.73
2022-10-07T22:07:01.225Z,7.71
2022-10-07T22:09:27.684Z,7.82
2022-10-07T22:11:54.117Z,7.90
2022-10-07T22:14:20.678Z,7.85
2022-10-07T22:16:49.634Z,7.90
2022-10-07T22:19:17.600Z,8.08
2022-10-07T22:21:45.623Z,8.11
2022-10-07T22:24:12.629Z,8.14
2022-10-07T22:26:40.654Z,8.27
2022-10-07T22:29:09.468Z,8.24
2022-10-07T22:31:36.203Z,8.23
2022-10-07T22:34:02.645Z,8.26
2022-10-07T22:36:29.208Z,8.25
2022-10-07T22:39:01.619Z,8.14
2022-10-07T22:41:29.161Z,8.12
2022-10-07T22:43:55.677Z,8.14
2022-10-07T22:46:26.581Z,8.16
2022-10-07T22:48:54.130Z,8.13
2022-10-07T22:51:20.585Z,8.14
2022-10-07T22:53:50.618Z,8.18
2022-10-07T22:56:17.631Z,8.19
2022-10-07T22:58:44.557Z,8.18
2022-10-07T23:01:13.863Z,8.16
2022-10-07T23:03:43.711Z,8.10
2022-10-07T23:06:10.942Z,8.04
2022-10-07T23:08:38.441Z,8.06
2022-10-07T23:11:05.137Z,8.09
2022-10-07T23:13:32.126Z,8.03
2022-10-07T23:16:02.778Z,7.95
2022-10-07T23:18:29.533Z,7.96
2022-10-07T23:21:06.262Z,7.94
2022-10-07T23:23:36.363Z,7.89
2022-10-07T23:26:03.405Z,7.90
2022-10-07T23:28:30.338Z,7.77
2022-10-07T23:30:58.888Z,7.69
2022-10-07T23:33:25.382Z,7.71
2022-10-07T23:35:55.341Z,7.70
2022-10-07T23:38:21.750Z,7.79
2022-10-07T23:40:48.450Z,7.84
2022-10-07T23:43:14.865Z,7.85
2022-10-07T23:45:41.288Z,7.86
2022-10-07T23:48:07.701Z,7.85
2022-10-07T23:50:34.870Z,7.80
2022-10-07T23:53:01.301Z,7.86
2022-10-07T23:55:28.536Z,7.94
2022-10-07T23:57:55.110Z,7.96
